createdAt,value
2018-04-26T00:02:14.252Z,14.90
2018-04-26T00:04:41.693Z,14.80
2018-04-26T00:07:09.915Z,14.80
2018-04-26T00:09:37.358Z,14.70
2018-04-26T00:12:04.822Z,14.70
2018-04-26T00:14:32.271Z,14.70
2018-04-26T00:16:59.708Z,14.70
2018-04-26T00:19:27.927Z,14.50
2018-04-26T00:21:55.363Z,14.50
2018-04-26T00:24:22.816Z,14.50
2018-04-26T00:26:50.251Z,14.50
2018-04-26T00:29:18.466Z,14.50
2018-04-26T00:31:45.906Z,14.50
2018-04-26T00:34:13.353Z,14.50
2018-04-26T00:36:40.797Z,14.50
2018-04-26T00:39:09.021Z,14.50
2018-04-26T00:41:36.463Z,14.50
2018-04-26T00:44:03.915Z,14.40
2018-04-26T00:46:31.421Z,14.40
2018-04-26T00:48:58.813Z,14.30
2018-04-26T00:51:38.291Z,14.20
2018-04-26T00:54:05.749Z,14.10
2018-04-26T00:56:33.194Z,14.00
2018-04-26T00:59:00.644Z,13.90
2018-04-26T01:01:28.096Z,13.80
2018-04-26T01:03:55.546Z,13.70
2018-04-26T01:06:22.985Z,13.60
2018-04-26T01:08:51.209Z,13.40
2018-04-26T01:11:18.642Z,13.30
2018-04-26T01:13:46.123Z,13.20
2018-04-26T01:16:13.561Z,13.10
2018-04-26T01:18:40.995Z,13.10
2018-04-26T01:21:08.440Z,13.10
2018-04-26T01:23:36.651Z,13.00
2018-04-26T01:26:04.114Z,13.00
2018-04-26T01:28:31.561Z,13.10
2018-04-26T01:30:59.016Z,13.20
2018-04-26T01:33:26.451Z,13.10
2018-04-26T01:35:54.671Z,13.00
2018-04-26T01:38:22.108Z,12.90
2018-04-26T01:40:49.567Z,12.90
2018-04-26T01:43:17.010Z,12.90
2018-04-26T01:45:44.458Z,12.90
2018-04-26T01:48:11.909Z,12.80
2018-04-26T01:50:40.127Z,12.80
2018-04-26T01:53:07.567Z,12.80
2018-04-26T01:55:35.017Z,12.90
2018-04-26T01:58:02.452Z,12.90
2018-04-26T02:00:30.671Z,12.90
2018-04-26T02:02:58.111Z,12.90
2018-04-26T02:05:25.565Z,13.00
2018-04-26T02:07:53.001Z,12.90
2018-04-26T02:10:21.231Z,12.80
2018-04-26T02:12:48.659Z,12.80
2018-04-26T02:15:16.106Z,12.70
2018-04-26T02:17:43.551Z,12.70
2018-04-26T02:20:11.018Z,12.70
2018-04-26T02:22:38.467Z,12.70
2018-04-26T02:25:05.907Z,12.60
2018-04-26T02:27:34.127Z,12.60
2018-04-26T02:30:01.556Z,12.50
2018-04-26T02:32:29.006Z,12.60
2018-04-26T02:34:57.206Z,12.50
2018-04-26T02:37:24.657Z,12.50
2018-04-26T02:39:52.091Z,12.60
2018-04-26T02:42:20.307Z,12.50
2018-04-26T02:44:47.754Z,12.50
2018-04-26T02:47:15.196Z,12.50
2018-04-26T02:49:42.636Z,12.60
2018-04-26T02:52:10.855Z,12.60
2018-04-26T02:54:38.295Z,12.60
2018-04-26T02:57:05.744Z,12.60
2018-04-26T02:59:33.213Z,12.60
2018-04-26T03:02:01.408Z,12.80
2018-04-26T03:04:28.841Z,12.70
2018-04-26T03:06:56.288Z,12.70
2018-04-26T03:09:23.731Z,12.80
2018-04-26T03:11:51.947Z,12.80
2018-04-26T03:14:19.389Z,12.80
2018-04-26T03:16:46.841Z,12.60
2018-04-26T03:19:14.280Z,12.40
2018-04-26T03:21:42.501Z,12.30
2018-04-26T03:24:09.935Z,12.30
2018-04-26T03:26:37.388Z,12.30
2018-04-26T03:29:04.838Z,12.30
2018-04-26T03:31:32.283Z,12.30
2018-04-26T03:34:00.501Z,12.20
2018-04-26T03:36:27.946Z,12.20
2018-04-26T03:38:55.395Z,12.10
2018-04-26T03:41:22.835Z,12.00
2018-04-26T03:43:50.287Z,12.00
2018-04-26T03:46:18.492Z,11.80
2018-04-26T03:48:45.944Z,11.80
2018-04-26T03:51:13.390Z,11.70
2018-04-26T03:53:40.842Z,11.60
2018-04-26T03:56:08.283Z,11.50
2018-04-26T03:58:36.500Z,11.50
2018-04-26T04:01:15.644Z,11.40
2018-04-26T04:03:54.895Z,11.50
2018-04-26T04:06:22.344Z,11.50
2018-04-26T04:08:49.796Z,11.50
2018-04-26T04:11:17.236Z,11.50
2018-04-26T04:13:44.743Z,11.50
2018-04-26T04:16:12.131Z,11.50
2018-04-26T04:18:39.582Z,11.60
2018-04-26T04:21:07.024Z,11.60
2018-04-26T04:23:35.247Z,11.70
2018-04-26T04:26:03.623Z,11.60
2018-04-26T04:28:31.071Z,11.70
2018-04-26T04:30:58.505Z,11.80
2018-04-26T04:33:25.950Z,11.70
2018-04-26T04:35:54.160Z,11.70
2018-04-26T04:38:21.615Z,11.70
2018-04-26T04:40:49.056Z,11.70
2018-04-26T04:43:16.595Z,11.70
2018-04-26T04:45:43.975Z,11.70
2018-04-26T04:48:11.408Z,11.70
2018-04-26T04:50:39.629Z,11.70
2018-04-26T04:53:07.077Z,11.70
2018-04-26T04:55:34.522Z,11.60
2018-04-26T04:58:01.969Z,11.60
2018-04-26T05:00:30.193Z,11.60
2018-04-26T05:02:57.623Z,11.60
2018-04-26T05:05:25.075Z,11.70
2018-04-26T05:07:52.526Z,11.70
2018-04-26T05:10:19.977Z,11.70
2018-04-26T05:12:47.418Z,11.70
2018-04-26T05:15:15.627Z,11.90
2018-04-26T05:17:43.067Z,11.90
2018-04-26T05:20:10.515Z,11.90
2018-04-26T05:22:38.749Z,11.90
2018-04-26T05:25:06.273Z,11.90
2018-04-26T05:27:33.843Z,11.90
2018-04-26T05:30:01.313Z,12.10
2018-04-26T05:32:28.743Z,12.00
2018-04-26T05:34:56.221Z,12.00
2018-04-26T05:37:23.637Z,12.10
2018-04-26T05:39:51.850Z,12.30
2018-04-26T05:42:19.287Z,12.30
2018-04-26T05:44:46.740Z,12.30
2018-04-26T05:47:14.218Z,12.40
2018-04-26T05:49:42.383Z,12.40
2018-04-26T05:52:09.839Z,12.40
2018-04-26T05:54:37.272Z,12.40
2018-04-26T05:57:04.730Z,12.40
2018-04-26T05:59:32.934Z,12.60
2018-04-26T06:02:00.385Z,12.60
2018-04-26T06:04:27.823Z,12.80
2018-04-26T06:06:55.271Z,12.80
2018-04-26T06:09:23.475Z,12.90
2018-04-26T06:11:50.923Z,12.90
2018-04-26T06:14:18.368Z,12.80
2018-04-26T06:16:45.881Z,12.90
2018-04-26T06:19:14.027Z,13.00
2018-04-26T06:21:41.484Z,13.00
2018-04-26T06:24:08.925Z,13.00
2018-04-26T06:26:36.377Z,13.10
2018-04-26T06:29:03.816Z,13.10
2018-04-26T06:31:32.042Z,13.20
2018-04-26T06:33:59.483Z,13.20
2018-04-26T06:36:26.931Z,13.30
2018-04-26T06:38:54.368Z,13.30
2018-04-26T06:41:22.581Z,13.60
2018-04-26T06:43:50.019Z,13.60
2018-04-26T06:46:17.467Z,13.60
2018-04-26T06:48:44.903Z,13.70
2018-04-26T06:51:13.173Z,13.90
2018-04-26T06:53:40.607Z,13.90
2018-04-26T06:56:08.050Z,14.00
2018-04-26T06:58:35.497Z,14.20
2018-04-26T07:01:02.998Z,14.40
2018-04-26T07:03:30.780Z,14.40
2018-04-26T07:05:58.991Z,14.40
2018-04-26T07:08:26.440Z,14.40
2018-04-26T07:10:53.878Z,14.30
2018-04-26T07:13:22.093Z,14.40
2018-04-26T07:15:49.531Z,14.40
2018-04-26T07:18:16.980Z,14.40
2018-04-26T07:20:44.431Z,14.50
2018-04-26T07:23:11.879Z,14.50
2018-04-26T07:25:40.083Z,14.30
2018-04-26T07:28:07.526Z,14.30
2018-04-26T07:30:34.963Z,14.40
2018-04-26T07:33:03.179Z,15.00
2018-04-26T07:35:30.623Z,15.00
2018-04-26T07:37:58.072Z,15.40
2018-04-26T07:40:25.507Z,15.80
2018-04-26T07:42:53.735Z,15.90
2018-04-26T07:45:21.174Z,15.90
2018-04-26T07:47:48.629Z,16.20
2018-04-26T07:50:16.063Z,16.70
2018-04-26T07:52:43.515Z,17.10
2018-04-26T07:55:11.717Z,18.10
2018-04-26T07:57:39.154Z,18.10
2018-04-26T08:00:06.600Z,18.50
2018-04-26T08:02:34.047Z,18.30
2018-04-26T08:05:02.266Z,18.10
2018-04-26T08:07:29.707Z,18.10
2018-04-26T08:09:57.156Z,18.00
2018-04-26T08:12:24.607Z,17.70
2018-04-26T08:14:52.815Z,16.90
2018-04-26T08:17:20.251Z,16.80
2018-04-26T08:19:47.702Z,16.50
2018-04-26T08:22:15.968Z,16.30
2018-04-26T08:24:44.179Z,15.80
2018-04-26T08:27:11.616Z,15.80
2018-04-26T08:29:39.072Z,15.60
2018-04-26T08:32:06.520Z,15.50
2018-04-26T08:34:34.741Z,15.50
2018-04-26T08:37:02.176Z,15.50
2018-04-26T08:39:29.629Z,15.50
2018-04-26T08:41:57.058Z,15.40
2018-04-26T08:44:25.278Z,15.50
2018-04-26T08:46:52.738Z,15.40
2018-04-26T08:49:20.184Z,15.40
2018-04-26T08:51:47.623Z,15.50
2018-04-26T08:54:15.073Z,15.60
2018-04-26T08:56:42.523Z,15.60
2018-04-26T08:59:10.739Z,15.50
2018-04-26T09:01:38.179Z,15.40
2018-04-26T09:04:05.639Z,15.30
2018-04-26T09:06:33.079Z,15.10
2018-04-26T09:09:00.547Z,14.90
2018-04-26T09:11:27.980Z,14.80
2018-04-26T09:13:56.187Z,14.70
2018-04-26T09:16:23.640Z,14.70
2018-04-26T09:18:51.085Z,14.70
2018-04-26T09:21:18.536Z,14.70
2018-04-26T09:23:46.756Z,14.70
2018-04-26T09:26:14.207Z,14.70
2018-04-26T09:28:41.645Z,14.70
2018-04-26T09:31:09.092Z,14.70
2018-04-26T09:33:36.529Z,14.70
2018-04-26T09:36:04.742Z,14.60
2018-04-26T09:38:32.175Z,14.50
2018-04-26T09:40:59.627Z,14.60
2018-04-26T09:43:27.845Z,14.60
2018-04-26T09:45:55.295Z,14.60
2018-04-26T09:48:22.731Z,14.90
2018-04-26T09:50:50.189Z,15.00
2018-04-26T09:53:17.627Z,15.00
2018-04-26T09:55:45.839Z,15.00
2018-04-26T09:58:13.285Z,15.00
2018-04-26T10:00:42.649Z,15.10
2018-04-26T10:03:10.091Z,15.10
2018-04-26T10:05:41.354Z,15.20
2018-04-26T10:08:08.788Z,15.10
2018-04-26T10:10:36.239Z,15.20
2018-04-26T10:13:03.673Z,15.40
2018-04-26T10:15:31.125Z,15.70
2018-04-26T10:17:58.564Z,16.10
2018-04-26T10:20:26.027Z,16.40
2018-04-26T10:22:53.459Z,16.90
2018-04-26T10:25:21.668Z,17.00
2018-04-26T10:27:49.119Z,16.90
2018-04-26T10:30:16.555Z,16.90
2018-04-26T10:32:44.772Z,16.50
2018-04-26T10:35:12.222Z,16.40
2018-04-26T10:37:39.665Z,16.70
2018-04-26T10:40:07.101Z,16.90
2018-04-26T10:42:35.311Z,17.40
2018-04-26T10:45:02.752Z,17.30
2018-04-26T10:47:30.199Z,17.50
2018-04-26T10:49:57.648Z,17.30
2018-04-26T10:52:25.859Z,17.00
2018-04-26T10:54:53.300Z,17.00
2018-04-26T10:57:20.747Z,17.00
2018-04-26T10:59:48.191Z,16.80
2018-04-26T11:02:16.407Z,17.00
2018-04-26T11:04:43.847Z,16.90
2018-04-26T11:07:11.300Z,17.40
2018-04-26T11:09:38.738Z,17.70
2018-04-26T11:12:06.955Z,18.40
2018-04-26T11:14:34.410Z,18.30
2018-04-26T11:17:01.875Z,18.70
2018-04-26T11:19:29.320Z,19.10
2018-04-26T11:21:56.782Z,19.60
2018-04-26T11:24:24.309Z,19.60
2018-04-26T11:26:51.663Z,19.10
2018-04-26T11:29:19.174Z,18.90
2018-04-26T11:31:47.311Z,18.40
2018-04-26T11:34:14.764Z,18.40
2018-04-26T11:36:42.200Z,18.20
2018-04-26T11:39:10.442Z,17.70
2018-04-26T11:41:37.891Z,17.70
2018-04-26T11:44:05.348Z,17.40
2018-04-26T11:46:32.791Z,17.30
2018-04-26T11:49:01.008Z,17.00
2018-04-26T11:51:28.455Z,17.00
2018-04-26T11:53:55.906Z,16.90
2018-04-26T11:56:23.358Z,16.90
2018-04-26T11:58:50.804Z,16.80
2018-04-26T12:01:19.012Z,16.70
2018-04-26T12:03:46.459Z,16.60
2018-04-26T12:06:13.896Z,16.60
2018-04-26T12:08:41.365Z,16.60
2018-04-26T12:11:08.815Z,16.60
2018-04-26T12:13:36.272Z,16.50
2018-04-26T12:16:03.711Z,16.70
2018-04-26T12:18:31.183Z,17.00
2018-04-26T12:20:58.609Z,17.40
2018-04-26T12:23:26.055Z,17.60
2018-04-26T12:25:53.499Z,17.80
2018-04-26T12:28:21.751Z,17.80
2018-04-26T12:30:49.178Z,17.80
2018-04-26T12:33:16.640Z,17.70
2018-04-26T12:35:44.086Z,17.50
2018-04-26T12:38:11.599Z,17.30
2018-04-26T12:40:39.806Z,17.00
2018-04-26T12:43:07.256Z,17.00
2018-04-26T12:45:34.700Z,17.10
2018-04-26T12:48:02.907Z,17.30
2018-04-26T12:50:30.357Z,17.30
2018-04-26T12:52:57.796Z,17.30
2018-04-26T12:55:25.248Z,17.40
2018-04-26T12:57:53.448Z,17.40
2018-04-26T13:00:20.904Z,17.40
2018-04-26T13:02:48.376Z,17.30
2018-04-26T13:05:15.830Z,17.30
2018-04-26T13:07:43.291Z,17.30
2018-04-26T13:10:10.748Z,17.20
2018-04-26T13:12:38.243Z,17.20
2018-04-26T13:15:05.644Z,17.10
2018-04-26T13:17:33.121Z,17.00
2018-04-26T13:20:00.539Z,16.80
2018-04-26T13:22:27.976Z,16.70
2018-04-26T13:24:56.206Z,16.60
2018-04-26T13:27:23.698Z,16.60
2018-04-26T13:29:51.182Z,16.60
2018-04-26T13:32:18.544Z,16.60
2018-04-26T13:34:45.991Z,16.60
2018-04-26T13:37:14.264Z,16.50
2018-04-26T13:39:42.559Z,16.50
2018-04-26T13:42:09.951Z,16.50
2018-04-26T13:44:37.403Z,16.50
2018-04-26T13:47:04.843Z,16.50
2018-04-26T13:49:32.291Z,16.50
2018-04-26T13:51:59.784Z,16.50
2018-04-26T13:54:27.191Z,16.50
2018-04-26T13:56:54.700Z,16.60
2018-04-26T13:59:22.192Z,16.60
2018-04-26T14:01:50.407Z,16.60
2018-04-26T14:04:17.847Z,16.60
2018-04-26T14:06:45.293Z,16.50
2018-04-26T14:09:12.735Z,16.40
2018-04-26T14:11:40.960Z,16.40
2018-04-26T14:14:08.394Z,16.40
2018-04-26T14:16:35.852Z,16.50
2018-04-26T14:19:03.291Z,16.60
2018-04-26T14:21:31.500Z,16.60
2018-04-26T14:23:58.944Z,16.50
2018-04-26T14:26:26.397Z,16.60
2018-04-26T14:28:53.838Z,16.60
2018-04-26T14:31:22.045Z,16.70
2018-04-26T14:33:49.498Z,16.70
2018-04-26T14:36:16.943Z,16.70
2018-04-26T14:38:44.389Z,16.80
2018-04-26T14:41:12.620Z,16.70
2018-04-26T14:43:40.068Z,16.70
2018-04-26T14:46:07.524Z,16.70
2018-04-26T14:48:34.963Z,16.70
2018-04-26T14:51:02.436Z,16.70
2018-04-26T14:53:29.877Z,16.70
2018-04-26T14:55:57.315Z,16.80
2018-04-26T14:58:24.763Z,16.80
2018-04-26T15:00:52.975Z,16.80
2018-04-26T15:03:20.427Z,16.70
2018-04-26T15:05:47.868Z,16.70
2018-04-26T15:08:15.318Z,16.70
2018-04-26T15:10:42.762Z,16.70
2018-04-26T15:13:10.982Z,16.60
2018-04-26T15:15:38.423Z,16.60
2018-04-26T15:18:05.873Z,16.50
2018-04-26T15:20:33.308Z,16.50
2018-04-26T15:23:01.532Z,16.50
2018-04-26T15:25:28.968Z,16.50
2018-04-26T15:27:56.419Z,16.50
2018-04-26T15:30:23.884Z,16.50
2018-04-26T15:32:51.333Z,16.50
2018-04-26T15:35:18.763Z,16.50
2018-04-26T15:37:46.983Z,16.50
2018-04-26T15:40:14.433Z,16.40
2018-04-26T15:42:41.874Z,16.50
2018-04-26T15:45:09.307Z,16.40
2018-04-26T15:47:37.520Z,16.30
2018-04-26T15:50:04.997Z,16.30
2018-04-26T15:55:52.804Z,16.30
2018-04-26T16:04:57.309Z,16.20
2018-04-26T16:07:51.208Z,16.20
2018-04-26T16:10:30.664Z,16.20
2018-04-26T16:13:16.399Z,16.10
2018-04-26T16:16:01.719Z,16.10
2018-04-26T16:21:42.874Z,16.00
2018-04-26T16:24:28.086Z,15.90
2018-04-26T16:27:13.075Z,15.80
2018-04-26T16:29:52.457Z,15.70
2018-04-26T16:32:37.778Z,15.70
2018-04-26T16:35:21.045Z,15.70
2018-04-26T16:38:06.848Z,15.70
2018-04-26T16:40:34.292Z,15.70
2018-04-26T16:43:01.796Z,15.70
2018-04-26T16:45:29.207Z,15.80
2018-04-26T16:47:56.680Z,15.80
2018-04-26T16:50:24.131Z,15.80
2018-04-26T16:52:51.588Z,15.80
2018-04-26T16:55:19.047Z,15.80
2018-04-26T16:57:46.485Z,15.70
2018-04-26T17:00:13.934Z,15.70
2018-04-26T17:02:42.586Z,15.70
2018-04-26T17:05:10.064Z,15.70
2018-04-26T17:07:37.502Z,15.70
2018-04-26T17:10:04.987Z,15.70
2018-04-26T17:12:32.435Z,15.70
2018-04-26T17:14:59.906Z,15.70
2018-04-26T17:17:28.110Z,15.70
2018-04-26T17:19:55.568Z,15.60
2018-04-26T17:22:23.020Z,15.60
2018-04-26T17:24:50.485Z,15.60
2018-04-26T17:27:17.927Z,15.60
2018-04-26T17:29:45.404Z,15.60
2018-04-26T17:32:12.852Z,15.60
2018-04-26T17:34:40.316Z,15.50
2018-04-26T17:37:07.774Z,15.50
2018-04-26T17:39:35.239Z,15.40
2018-04-26T17:42:02.693Z,15.40
2018-04-26T17:44:30.135Z,15.30
2018-04-26T17:46:57.575Z,15.30
2018-04-26T17:49:25.039Z,15.20
2018-04-26T17:51:52.488Z,15.20
2018-04-26T17:54:20.711Z,15.10
2018-04-26T17:56:48.184Z,15.10
2018-04-26T17:59:15.631Z,15.10
2018-04-26T18:01:43.155Z,15.00
2018-04-26T18:04:10.603Z,14.90
2018-04-26T18:06:38.087Z,14.90
2018-04-26T18:09:05.548Z,14.90
2018-04-26T18:11:33.003Z,14.80
2018-04-26T18:14:00.497Z,14.80
2018-04-26T18:16:27.948Z,14.70
2018-04-26T18:18:55.392Z,14.70
2018-04-26T18:21:22.947Z,14.70
2018-04-26T18:23:50.382Z,14.60
2018-04-26T18:26:17.868Z,14.60
2018-04-26T18:28:45.376Z,14.60
2018-04-26T18:31:12.762Z,14.60
2018-04-26T18:33:40.217Z,14.50
2018-04-26T18:36:07.663Z,14.40
2018-04-26T18:38:35.103Z,14.30
2018-04-26T18:41:02.570Z,14.30
2018-04-26T18:43:30.036Z,14.10
2018-04-26T18:45:58.225Z,14.10
2018-04-26T18:48:25.665Z,14.10
2018-04-26T18:50:53.107Z,14.10
2018-04-26T18:53:20.559Z,14.00
2018-04-26T18:55:48.003Z,13.90
2018-04-26T18:58:16.223Z,13.70
2018-04-26T19:00:43.663Z,13.70
2018-04-26T19:03:11.115Z,13.60
2018-04-26T19:05:38.575Z,13.60
2018-04-26T19:08:06.044Z,13.50
2018-04-26T19:10:33.493Z,13.40
2018-04-26T19:13:00.946Z,13.60
2018-04-26T19:15:28.389Z,13.30
2018-04-26T19:17:56.608Z,13.30
2018-04-26T19:20:24.054Z,13.20
2018-04-26T19:22:51.556Z,13.20
2018-04-26T19:25:19.200Z,13.30
2018-04-26T19:27:46.761Z,13.10
2018-04-26T19:30:14.156Z,13.00
2018-04-26T19:32:42.374Z,12.80
2018-04-26T19:35:09.812Z,12.80
2018-04-26T19:37:37.263Z,12.80
2018-04-26T19:40:04.695Z,12.80
2018-04-26T19:42:32.940Z,12.70
2018-04-26T19:45:00.391Z,12.70
2018-04-26T19:47:27.836Z,12.50
2018-04-26T19:49:55.299Z,12.50
2018-04-26T19:52:22.754Z,12.40
2018-04-26T19:54:50.196Z,12.40
2018-04-26T19:57:17.648Z,12.40
2018-04-26T19:59:45.101Z,12.40
2018-04-26T20:02:12.597Z,12.30
2018-04-26T20:04:40.757Z,12.30
2018-04-26T20:07:08.207Z,12.30
2018-04-26T20:09:35.660Z,12.40
2018-04-26T20:12:03.102Z,12.30
2018-04-26T20:14:30.555Z,12.30
2018-04-26T20:16:58.031Z,12.20
2018-04-26T20:19:25.483Z,12.20
2018-04-26T20:21:52.944Z,12.10
2018-04-26T20:24:20.396Z,12.30
2018-04-26T20:26:47.924Z,12.30
2018-04-26T20:29:15.297Z,12.20
2018-04-26T20:31:42.740Z,12.20
2018-04-26T20:34:10.975Z,12.30
2018-04-26T20:36:38.404Z,12.20
2018-04-26T20:39:05.864Z,12.20
2018-04-26T20:41:45.035Z,12.20
2018-04-26T20:44:12.488Z,12.10
2018-04-26T20:46:39.926Z,11.90
2018-04-26T20:49:07.376Z,12.00
2018-04-26T20:51:34.884Z,11.90
2018-04-26T20:54:02.327Z,11.80
2018-04-26T20:56:29.783Z,11.80
2018-04-26T20:58:57.228Z,11.80
2018-04-26T21:01:24.679Z,11.90
2018-04-26T21:03:52.147Z,11.90
2018-04-26T21:06:19.599Z,11.80
2018-04-26T21:08:47.805Z,11.80
2018-04-26T21:11:16.028Z,11.90
2018-04-26T21:13:43.468Z,11.80
2018-04-26T21:16:10.924Z,11.80
2018-04-26T21:18:38.370Z,11.80
2018-04-26T21:21:05.824Z,11.80
2018-04-26T21:23:33.436Z,11.80
2018-04-26T21:26:00.891Z,11.80
2018-04-26T21:28:28.346Z,11.90
2018-04-26T21:30:55.803Z,11.80
2018-04-26T21:33:23.242Z,11.70
2018-04-26T21:35:50.883Z,11.70
2018-04-26T21:38:18.166Z,11.80
2018-04-26T21:40:45.631Z,11.70
2018-04-26T21:43:13.071Z,11.60
2018-04-26T21:45:40.538Z,11.60
2018-04-26T21:48:07.985Z,11.50
2018-04-26T21:50:41.180Z,11.50
2018-04-26T21:53:14.371Z,11.50
2018-04-26T21:55:47.598Z,11.50
2018-04-26T21:58:20.844Z,11.50
2018-04-26T22:00:54.065Z,11.40
2018-04-26T22:03:27.079Z,11.50
2018-04-26T22:05:54.567Z,11.60
2018-04-26T22:08:22.005Z,11.40
2018-04-26T22:10:50.221Z,11.30
2018-04-26T22:13:17.670Z,11.20
2018-04-26T22:15:45.116Z,11.30
2018-04-26T22:18:12.563Z,11.50
2018-04-26T22:20:40.021Z,11.40
2018-04-26T22:23:08.268Z,11.30
2018-04-26T22:25:35.724Z,11.30
2018-04-26T22:28:03.187Z,11.30
2018-04-26T22:30:30.670Z,11.20
2018-04-26T22:32:58.884Z,11.10
2018-04-26T22:35:26.336Z,11.10
2018-04-26T22:37:53.780Z,10.90
2018-04-26T22:40:21.227Z,10.80
2018-04-26T22:42:48.685Z,10.80
2018-04-26T22:45:16.129Z,10.80
2018-04-26T22:47:43.580Z,10.90
2018-04-26T22:50:11.783Z,10.90
2018-04-26T22:52:39.249Z,10.90
2018-04-26T22:55:06.688Z,10.80
2018-04-26T22:57:34.143Z,10.90
2018-04-26T23:00:01.600Z,10.70
2018-04-26T23:02:29.080Z,10.70
2018-04-26T23:04:56.528Z,10.60
2018-04-26T23:07:24.008Z,10.70
2018-04-26T23:09:51.465Z,10.70
2018-04-26T23:20:51.655Z,10.40
2018-04-26T23:26:10.239Z,10.20
2018-04-26T23:28:37.690Z,10.20
2018-04-26T23:31:05.132Z,10.30
2018-04-26T23:33:33.275Z,10.30
2018-04-26T23:36:00.714Z,10.40
2018-04-26T23:38:28.923Z,10.40
2018-04-26T23:40:56.363Z,10.40
2018-04-26T23:43:23.816Z,10.40
2018-04-26T23:45:51.246Z,10.30
2018-04-26T23:48:19.462Z,10.30
2018-04-26T23:50:46.904Z,10.30
2018-04-26T23:53:14.355Z,10.30
2018-04-26T23:55:41.791Z,10.20
2018-04-26T23:58:10.008Z,10.30
